createdAt,value
2023-05-11T00:02:19.110Z,3796.20
2023-05-11T00:04:48.150Z,3838.00
2023-05-11T00:07:15.458Z,3849.20
2023-05-11T00:09:42.855Z,3831.50
2023-05-11T00:12:10.008Z,3844.75
2023-05-11T00:14:37.371Z,3833.00
2023-05-11T00:17:06.206Z,3843.80
2023-05-11T00:19:34.287Z,3836.00
2023-05-11T00:22:04.088Z,3817.80
2023-05-11T00:24:31.431Z,3833.60
2023-05-11T00:26:59.742Z,3907.40
2023-05-11T00:29:27.540Z,3822.50
2023-05-11T00:31:54.778Z,3848.75
2023-05-11T00:34:22.187Z,3804.20
2023-05-11T00:36:49.041Z,3857.50
2023-05-11T00:39:17.599Z,3797.60
2023-05-11T00:41:44.874Z,3826.20
2023-05-11T00:44:11.588Z,3782.40
2023-05-11T00:46:39.777Z,3826.40
2023-05-11T00:49:07.783Z,3814.40
2023-05-11T00:51:36.808Z,3790.80
2023-05-11T00:54:04.988Z,3826.20
2023-05-11T00:56:33.722Z,3836.40
2023-05-11T00:59:01.374Z,3787.20
2023-05-11T01:01:29.265Z,3851.00
2023-05-11T01:03:56.639Z,3836.60
2023-05-11T01:06:32.161Z,3835.00
2023-05-11T01:09:06.802Z,3863.20
2023-05-11T01:11:42.753Z,3807.80
2023-05-11T01:14:16.336Z,3812.80
2023-05-11T01:16:49.108Z,3772.00
2023-05-11T01:19:24.840Z,3806.00
2023-05-11T01:21:53.174Z,3856.00
2023-05-11T01:24:46.131Z,3856.00
2023-05-11T01:27:54.817Z,3819.80
2023-05-11T01:30:39.929Z,3836.60
2023-05-11T01:33:11.695Z,3813.20
2023-05-11T01:35:46.573Z,3802.20
2023-05-11T01:38:15.349Z,3842.00
2023-05-11T01:40:44.558Z,3822.80
2023-05-11T01:43:14.291Z,3790.80
2023-05-11T01:45:49.826Z,3814.40
2023-05-11T01:48:25.044Z,3831.80
2023-05-11T01:50:55.871Z,3822.75
2023-05-11T01:53:24.641Z,3823.00
2023-05-11T01:55:53.215Z,3829.25
2023-05-11T01:58:25.148Z,3805.20
2023-05-11T02:00:54.910Z,3833.40
2023-05-11T02:03:23.482Z,3810.00
2023-05-11T02:05:52.656Z,3814.40
2023-05-11T02:08:21.338Z,3844.50
2023-05-11T02:10:50.884Z,3833.00
2023-05-11T02:13:20.440Z,3817.40
2023-05-11T02:15:50.610Z,3802.00
2023-05-11T02:18:21.027Z,3838.40
2023-05-11T02:20:50.199Z,3823.00
2023-05-11T02:23:19.617Z,3787.20
2023-05-11T02:25:49.234Z,3818.00
2023-05-11T02:28:16.687Z,3835.20
2023-05-11T02:30:46.923Z,3797.00
2023-05-11T02:33:21.442Z,3810.00
2023-05-11T02:35:52.173Z,3834.80
2023-05-11T02:38:20.791Z,3842.00
2023-05-11T02:40:51.763Z,3822.75
2023-05-11T02:43:24.849Z,3820.75
2023-05-11T02:45:58.409Z,3817.80
2023-05-11T02:48:30.911Z,3915.50
2023-05-11T02:51:01.513Z,3788.75
2023-05-11T02:53:33.526Z,3782.40
2023-05-11T02:56:01.477Z,3787.40
2023-05-11T02:58:30.443Z,3820.50
2023-05-11T03:00:58.801Z,3813.80
2023-05-11T03:03:27.996Z,3789.00
2023-05-11T03:05:55.422Z,3787.20
2023-05-11T03:08:22.680Z,3778.60
2023-05-11T03:10:52.433Z,3785.40
2023-05-11T03:13:22.776Z,3787.20
2023-05-11T03:15:51.656Z,3819.20
2023-05-11T03:18:20.258Z,3797.40
2023-05-11T03:20:50.789Z,3816.20
2023-05-11T03:23:19.491Z,3842.25
2023-05-11T03:25:48.453Z,3833.75
2023-05-11T03:28:17.903Z,3816.40
2023-05-11T03:30:48.449Z,3784.00
2023-05-11T03:33:15.894Z,3792.60
2023-05-11T03:35:44.529Z,3821.60
2023-05-11T03:38:16.304Z,3785.80
2023-05-11T03:40:44.689Z,3825.50
2023-05-11T03:43:15.138Z,3795.00
2023-05-11T03:45:44.450Z,3814.40
2023-05-11T03:48:15.226Z,3807.60
2023-05-11T03:50:43.882Z,3782.80
2023-05-11T03:53:14.612Z,3812.60
2023-05-11T03:55:42.077Z,3806.00
2023-05-11T03:58:10.430Z,3817.60
2023-05-11T04:00:40.931Z,3809.00
2023-05-11T04:03:10.105Z,3789.00
2023-05-11T04:05:37.629Z,3830.00
2023-05-11T04:08:05.686Z,3845.40
2023-05-11T04:10:35.204Z,3788.50
2023-05-11T04:13:02.456Z,3797.00
2023-05-11T04:15:30.023Z,3792.60
2023-05-11T04:17:57.219Z,3834.00
2023-05-11T04:20:24.367Z,3805.80
2023-05-11T04:22:51.063Z,3830.00
2023-05-11T04:25:18.984Z,3840.25
2023-05-11T04:27:51.818Z,3805.60
2023-05-11T04:30:20.101Z,3809.00
2023-05-11T04:32:47.463Z,3812.25
2023-05-11T04:35:14.988Z,3840.20
2023-05-11T04:37:42.368Z,3807.40
2023-05-11T04:40:10.581Z,3823.00
2023-05-11T04:42:37.940Z,3814.60
2023-05-11T04:45:08.171Z,3785.40
2023-05-11T04:47:35.452Z,3831.75
2023-05-11T04:50:03.294Z,3842.00
2023-05-11T04:52:30.428Z,3820.80
2023-05-11T04:54:57.803Z,3833.00
2023-05-11T04:57:25.302Z,3822.60
2023-05-11T04:59:52.811Z,3812.25
2023-05-11T05:02:21.778Z,3798.60
2023-05-11T05:04:49.377Z,3833.50
2023-05-11T05:07:16.729Z,3814.50
2023-05-11T05:09:45.308Z,3826.40
2023-05-11T05:12:13.077Z,3789.00
2023-05-11T05:14:40.187Z,3800.40
2023-05-11T05:17:07.396Z,3833.00
2023-05-11T05:19:36.052Z,3842.00
2023-05-11T05:22:03.765Z,3785.40
2023-05-11T05:24:31.066Z,3753.40
2023-05-11T05:26:58.477Z,3810.00
2023-05-11T05:29:25.682Z,3790.00
2023-05-11T05:31:52.932Z,3753.40
2023-05-11T05:34:20.771Z,3786.50
2023-05-11T05:36:49.867Z,3814.40
2023-05-11T05:39:17.030Z,3801.25
2023-05-11T05:41:44.680Z,3819.00
2023-05-11T05:44:12.338Z,3793.80
2023-05-11T05:46:39.658Z,3785.60
2023-05-11T05:49:07.202Z,3812.60
2023-05-11T05:51:34.642Z,3802.20
2023-05-11T05:54:03.955Z,3829.50
2023-05-11T05:56:31.188Z,3819.20
2023-05-11T05:58:59.253Z,3819.20
2023-05-11T06:01:27.658Z,3831.80
2023-05-11T06:03:55.844Z,3797.00
2023-05-11T06:06:23.307Z,3792.50
2023-05-11T06:08:50.882Z,3753.40
2023-05-11T06:11:20.045Z,3759.50
2023-05-11T06:13:47.386Z,3767.50
2023-05-11T06:16:15.028Z,3780.00
2023-05-11T06:18:42.725Z,3773.75
2023-05-11T06:21:09.620Z,3765.50
2023-05-11T06:23:36.866Z,3759.50
2023-05-11T06:26:04.168Z,3763.75
2023-05-11T06:28:33.061Z,3777.75
2023-05-11T06:31:00.191Z,3767.50
2023-05-11T06:33:27.812Z,3753.40
2023-05-11T06:35:54.965Z,3793.20
2023-05-11T06:38:22.323Z,3778.00
2023-05-11T06:40:53.392Z,3763.00
2023-05-11T06:43:20.512Z,3768.40
2023-05-11T06:45:50.634Z,3773.20
2023-05-11T06:48:18.333Z,3773.50
2023-05-11T06:50:45.755Z,3740.75
2023-05-11T06:53:13.412Z,3769.80
2023-05-11T06:55:41.225Z,3791.40
2023-05-11T06:58:08.837Z,3771.80
2023-05-11T07:00:36.229Z,3716.80
2023-05-11T07:03:05.517Z,3748.50
2023-05-11T07:05:32.877Z,3763.25
2023-05-11T07:08:00.221Z,3721.75
2023-05-11T07:10:28.031Z,3748.75
2023-05-11T07:12:55.618Z,3719.50
2023-05-11T07:15:23.306Z,3722.00
2023-05-11T07:17:50.929Z,3706.00
2023-05-11T07:20:19.950Z,3750.75
2023-05-11T07:22:47.521Z,3724.80
2023-05-11T07:25:14.768Z,3708.80
2023-05-11T07:27:41.942Z,3715.75
2023-05-11T07:30:11.159Z,3735.00
2023-05-11T07:32:38.409Z,3677.00
2023-05-11T07:35:06.544Z,3685.25
2023-05-11T07:37:35.857Z,3669.00
2023-05-11T07:40:03.686Z,3659.50
2023-05-11T07:42:30.890Z,3708.40
2023-05-11T07:44:58.217Z,3701.25
2023-05-11T07:47:25.520Z,3675.25
2023-05-11T07:49:52.806Z,3690.80
2023-05-11T07:52:19.657Z,3689.20
2023-05-11T07:54:48.646Z,3663.40
2023-05-11T07:57:16.062Z,3648.00
2023-05-11T07:59:45.735Z,3675.00
2023-05-11T08:02:13.482Z,3697.25
2023-05-11T08:04:40.387Z,3697.25
2023-05-11T08:07:08.722Z,3681.00
2023-05-11T08:09:36.333Z,3684.60
2023-05-11T08:12:05.607Z,3687.25
2023-05-11T08:14:33.129Z,3663.00
2023-05-11T08:17:00.754Z,3714.80
2023-05-11T08:19:27.915Z,3697.20
2023-05-11T08:21:55.406Z,3671.00
2023-05-11T08:24:23.278Z,3719.25
2023-05-11T08:26:50.508Z,3710.00
2023-05-11T08:29:18.970Z,3703.25
2023-05-11T08:31:46.330Z,3681.40
2023-05-11T08:34:19.101Z,3701.00
2023-05-11T08:36:47.428Z,3630.00
2023-05-11T08:39:21.383Z,3636.80
2023-05-11T08:41:57.787Z,3641.60
2023-05-11T08:44:27.492Z,3685.80
2023-05-11T08:47:08.641Z,3642.00
2023-05-11T08:49:43.187Z,3645.00
2023-05-11T08:52:12.324Z,3601.20
2023-05-11T08:54:39.961Z,3569.20
2023-05-11T08:57:07.490Z,3539.00
2023-05-11T08:59:36.283Z,3551.75
2023-05-11T09:02:05.606Z,3527.50
2023-05-11T09:04:34.582Z,3523.20
2023-05-11T09:07:01.949Z,3497.00
2023-05-11T09:09:29.409Z,3460.75
2023-05-11T09:11:56.731Z,3437.50
2023-05-11T09:16:56.315Z,3427.50
2023-05-11T09:19:23.615Z,3437.50
2023-05-11T09:21:52.929Z,3434.00
2023-05-11T09:24:21.454Z,3417.00
2023-05-11T10:30:49.631Z,3641.67
2023-05-11T10:33:18.043Z,3649.50
2023-05-11T10:35:46.014Z,3652.20
2023-05-11T10:38:14.990Z,3624.00
2023-05-11T10:40:45.871Z,3634.00
2023-05-11T10:43:43.533Z,3626.00
2023-05-11T10:46:30.456Z,3639.75
2023-05-11T10:49:32.827Z,3624.00
2023-05-11T10:52:17.318Z,3602.60
2023-05-11T10:54:57.634Z,3584.40
2023-05-11T10:57:48.969Z,3591.75
2023-05-11T11:00:50.794Z,3621.20
2023-05-11T11:03:20.238Z,3587.80
2023-05-11T11:05:47.463Z,3572.50
2023-05-11T11:08:15.107Z,3569.40
2023-05-11T11:10:45.191Z,3584.00
2023-05-11T11:13:14.289Z,3606.00
2023-05-11T11:16:10.001Z,3592.75
2023-05-11T11:18:39.649Z,3559.00
2023-05-11T11:21:08.648Z,3528.25
2023-05-11T11:23:43.354Z,3546.00
2023-05-11T14:58:20.467Z,3315.67
2023-05-11T15:00:47.227Z,3472.75
2023-05-11T15:03:14.221Z,3476.75
2023-05-11T15:05:41.030Z,3495.20
2023-05-11T15:08:18.410Z,2230.00
2023-05-11T15:10:52.850Z,2148.20
2023-05-11T15:13:22.295Z,3502.00
2023-05-11T15:15:49.165Z,3489.25
2023-05-11T15:18:15.940Z,3425.40
2023-05-11T15:20:42.703Z,2806.00
2023-05-11T15:23:09.818Z,3518.80
2023-05-11T15:25:36.810Z,3523.00
2023-05-11T15:28:03.915Z,3517.40
2023-05-11T15:30:32.897Z,3515.40
2023-05-11T15:32:59.866Z,3504.20
2023-05-11T15:35:26.945Z,3524.40
2023-05-11T15:37:53.599Z,2154.60
2023-05-11T15:40:20.578Z,3543.60
2023-05-11T15:42:47.629Z,2425.80
2023-05-11T15:45:14.677Z,2542.40
2023-05-11T15:47:42.872Z,800.40
2023-05-11T15:50:09.838Z,1710.00
2023-05-11T15:52:36.603Z,203.25
2023-05-11T15:55:03.605Z,2704.75
2023-05-11T15:57:30.341Z,3168.20
2023-05-11T15:59:57.335Z,3030.80
2023-05-11T16:02:24.405Z,2909.00
2023-05-11T16:04:52.710Z,458.00
2023-05-11T16:07:19.759Z,2654.60
2023-05-11T16:09:46.729Z,2870.75
2023-05-11T16:12:13.572Z,2851.25
2023-05-11T16:14:40.330Z,1858.00
2023-05-11T16:17:07.762Z,2143.20
2023-05-11T16:19:34.505Z,3000.60
2023-05-11T16:22:02.728Z,2885.00
2023-05-11T16:24:30.969Z,1722.80
2023-05-11T16:26:59.245Z,3126.50
2023-05-11T16:29:26.005Z,2874.50
2023-05-11T16:31:53.142Z,3381.60
2023-05-11T16:34:19.944Z,3280.20
2023-05-11T16:36:46.648Z,3422.80
2023-05-11T16:39:14.853Z,3443.80
2023-05-11T16:41:41.782Z,1017.50
2023-05-11T16:44:08.527Z,354.20
2023-05-11T16:46:35.564Z,1030.40
2023-05-11T16:49:02.311Z,85.00
2023-05-11T16:51:28.952Z,2602.00
2023-05-11T16:53:55.840Z,108.75
2023-05-11T16:56:23.929Z,1115.60
2023-05-11T16:58:50.534Z,959.25
2023-05-11T17:01:17.840Z,306.60
2023-05-11T17:03:45.044Z,2393.40
2023-05-11T17:06:11.869Z,1470.40
2023-05-11T17:08:38.855Z,2707.80
2023-05-11T17:11:05.612Z,2246.25
2023-05-11T17:13:33.743Z,3246.25
2023-05-11T17:16:00.402Z,3504.20
2023-05-11T17:18:27.127Z,3549.75
2023-05-11T17:20:54.615Z,3575.00
2023-05-11T17:23:21.546Z,3567.60
2023-05-11T17:25:48.709Z,3571.00
2023-05-11T17:28:15.736Z,3588.60
2023-05-11T17:30:48.848Z,3566.00
2023-05-11T17:33:16.434Z,3590.20
2023-05-11T17:35:43.266Z,3593.20
2023-05-11T17:38:10.064Z,3599.60
2023-05-11T17:40:36.842Z,3599.60
2023-05-11T17:43:03.540Z,3584.60
2023-05-11T17:45:30.322Z,3554.00
2023-05-11T17:47:58.502Z,3584.60
2023-05-11T17:50:25.160Z,3593.20
2023-05-11T17:52:52.202Z,3606.00
2023-05-11T17:55:19.320Z,3594.75
2023-05-11T17:57:46.461Z,3593.20
2023-05-11T18:00:14.513Z,3606.00
2023-05-11T18:02:41.340Z,3593.20
2023-05-11T18:05:10.486Z,3606.00
2023-05-11T18:07:37.372Z,3599.60
2023-05-11T18:10:04.708Z,3599.60
2023-05-11T18:12:31.773Z,3602.80
2023-05-11T18:14:58.793Z,3614.80
2023-05-11T18:17:25.818Z,3601.20
2023-05-11T18:19:52.487Z,3575.75
2023-05-11T18:22:21.844Z,3614.25
2023-05-11T18:24:48.641Z,3618.00
2023-05-11T18:27:15.455Z,3608.75
2023-05-11T18:29:42.511Z,3622.80
2023-05-11T18:32:09.212Z,3630.60
2023-05-11T18:34:36.234Z,3621.20
2023-05-11T18:37:03.136Z,3614.80
2023-05-11T18:39:31.164Z,3630.60
2023-05-11T18:41:59.741Z,3612.20
2023-05-11T18:44:26.672Z,3576.25
2023-05-11T18:46:53.476Z,3589.00
2023-05-11T18:49:20.836Z,3614.80
2023-05-11T18:51:47.692Z,3622.60
2023-05-11T18:54:15.236Z,3619.60
2023-05-11T18:56:43.438Z,3637.00
2023-05-11T18:59:10.396Z,3591.00
2023-05-11T19:01:47.137Z,3594.75
2023-05-11T19:04:15.236Z,3622.60
2023-05-11T19:06:41.949Z,3585.25
2023-05-11T19:09:08.677Z,3593.25
2023-05-11T19:11:35.363Z,3622.60
2023-05-11T19:14:03.958Z,3607.20
2023-05-11T19:16:30.687Z,3616.20
2023-05-11T19:18:57.487Z,3614.80
2023-05-11T19:21:24.144Z,3622.60
2023-05-11T19:23:51.119Z,3630.60
2023-05-11T19:26:17.949Z,3623.75
2023-05-11T19:28:44.643Z,3647.00
2023-05-11T19:31:12.844Z,3599.40
2023-05-11T19:33:39.556Z,3637.00
2023-05-11T19:36:06.364Z,3610.80
2023-05-11T19:38:33.108Z,3599.40
2023-05-11T19:40:59.980Z,3619.60
2023-05-11T19:43:26.662Z,3637.00
2023-05-11T19:45:53.503Z,3637.00
2023-05-11T19:48:21.888Z,3652.20
2023-05-11T19:50:48.705Z,3633.75
2023-05-11T19:53:15.450Z,3653.80
2023-05-11T19:55:42.484Z,3638.60
2023-05-11T19:58:09.112Z,3645.80
2023-05-11T20:00:35.783Z,3652.20
2023-05-11T20:03:02.669Z,3633.80
2023-05-11T20:05:30.746Z,3643.75
2023-05-11T20:07:57.458Z,3671.40
2023-05-11T20:10:24.463Z,3622.60
2023-05-11T20:12:51.231Z,3629.00
2023-05-11T20:15:18.344Z,3674.60
2023-05-11T20:17:45.459Z,3666.60
2023-05-11T20:20:12.525Z,3624.20
2023-05-11T20:22:41.447Z,3652.20
2023-05-11T20:25:17.024Z,3663.40
2023-05-11T20:27:45.348Z,3687.40
2023-05-11T20:30:12.879Z,3665.00
2023-05-11T20:32:39.698Z,3674.60
2023-05-11T20:35:07.494Z,3653.80
2023-05-11T20:37:34.330Z,3663.40
2023-05-11T20:40:03.073Z,3649.00
2023-05-11T20:42:29.805Z,3682.60
2023-05-11T20:44:57.362Z,3660.20
2023-05-11T20:47:24.085Z,3687.00
2023-05-11T20:49:51.014Z,3684.20
2023-05-11T20:52:17.747Z,3687.40
2023-05-11T20:54:44.770Z,3710.00
2023-05-11T20:57:12.964Z,3706.60
2023-05-11T21:02:09.761Z,3665.00
2023-05-11T21:04:36.794Z,3666.60
2023-05-11T21:07:03.586Z,3687.40
2023-05-11T21:09:30.524Z,3678.20
2023-05-11T21:11:57.271Z,3719.60
2023-05-11T21:14:25.639Z,3728.60
2023-05-11T21:16:52.398Z,3733.20
2023-05-11T21:19:19.162Z,3705.80
2023-05-11T21:21:46.031Z,3715.25
2023-05-11T21:24:13.376Z,3676.40
2023-05-11T21:26:40.017Z,3709.00
2023-05-11T21:29:06.907Z,3731.80
2023-05-11T21:31:35.204Z,3736.60
2023-05-11T21:34:01.920Z,3752.80
2023-05-11T21:36:29.119Z,3711.80
2023-05-11T21:38:55.845Z,3769.25
2023-05-11T21:41:22.547Z,3729.75
2023-05-11T21:43:49.550Z,3751.60
2023-05-11T21:46:16.241Z,3761.00
2023-05-11T21:48:44.235Z,3760.75
2023-05-11T21:51:11.364Z,3723.60
2023-05-11T21:53:38.416Z,3746.00
2023-05-11T21:56:05.350Z,3786.80
2023-05-11T21:58:32.081Z,3748.50
2023-05-11T22:00:59.068Z,3739.80
2023-05-11T22:03:26.130Z,3776.20
2023-05-11T22:05:54.315Z,3771.50
2023-05-11T22:08:21.050Z,3794.50
2023-05-11T22:10:47.771Z,3726.40
2023-05-11T22:13:14.561Z,3793.20
2023-05-11T22:15:41.548Z,3746.60
2023-05-11T22:18:08.507Z,3766.80
2023-05-11T22:20:35.542Z,3808.60
2023-05-11T22:23:03.960Z,3753.80
2023-05-11T22:25:30.649Z,3794.50
2023-05-11T22:27:57.407Z,3768.40
2023-05-11T22:30:24.139Z,3775.75
2023-05-11T22:32:50.975Z,3739.00
2023-05-11T22:35:18.282Z,3811.50
2023-05-11T22:37:45.221Z,3758.75
2023-05-11T22:40:14.421Z,3786.80
2023-05-11T22:42:41.248Z,3780.00
2023-05-11T22:45:09.437Z,3761.00
2023-05-11T22:47:36.256Z,3793.20
2023-05-11T22:50:03.011Z,3777.80
2023-05-11T22:52:29.789Z,3755.00
2023-05-11T22:54:56.491Z,3564.80
2023-05-11T22:57:25.723Z,3793.20
2023-05-11T22:59:52.533Z,3800.40
2023-05-11T23:02:21.074Z,3598.80
2023-05-11T23:04:49.414Z,3728.00
2023-05-11T23:07:16.033Z,3723.00
2023-05-11T23:09:42.658Z,3754.50
2023-05-11T23:12:09.517Z,3736.60
2023-05-11T23:14:37.739Z,3723.00
2023-05-11T23:17:04.521Z,3721.40
2023-05-11T23:19:31.417Z,3768.00
2023-05-11T23:21:58.098Z,3734.25
2023-05-11T23:24:25.086Z,3720.00
2023-05-11T23:26:52.026Z,3776.20
2023-05-11T23:29:19.033Z,3771.80
2023-05-11T23:31:47.282Z,3757.00
2023-05-11T23:34:14.428Z,3762.80
2023-05-11T23:36:41.412Z,3685.80
2023-05-11T23:39:08.040Z,3767.50
2023-05-11T23:41:34.684Z,3519.00
2023-05-11T23:44:01.344Z,3784.50
2023-05-11T23:46:27.956Z,3769.80
2023-05-11T23:48:56.001Z,3793.80
2023-05-11T23:51:23.020Z,3852.40
2023-05-11T23:53:49.655Z,3821.00
2023-05-11T23:56:16.633Z,3815.80
2023-05-11T23:58:43.343Z,3618.50
